sensor_id;sensor_type;location;lat;lon;timestamp;P1;durP1;ratioP1;P2;durP2;ratioP2
31438;SDS011;18062;48.872;9.220;2023-10-19T00:02:04;17.73;;;12.33;;
31438;SDS011;18062;48.872;9.220;2023-10-19T00:04:30;17.70;;;10.80;;
31438;SDS011;18062;48.872;9.220;2023-10-19T00:06:59;18.37;;;12.97;;
31438;SDS011;18062;48.872;9.220;2023-10-19T00:09:25;19.70;;;11.37;;
31438;SDS011;18062;48.872;9.220;2023-10-19T00:11:56;18.13;;;11.80;;
31438;SDS011;18062;48.872;9.220;2023-10-19T00:14:22;13.97;;;10.10;;
31438;SDS011;18062;48.872;9.220;2023-10-19T00:16:51;14.63;;;9.77;;
31438;SDS011;18062;48.872;9.220;2023-10-19T00:19:25;13.47;;;9.77;;
31438;SDS011;18062;48.872;9.220;2023-10-19T00:21:53;15.67;;;9.00;;
31438;SDS011;18062;48.872;9.220;2023-10-19T00:24:33;18.50;;;13.17;;
31438;SDS011;18062;48.872;9.220;2023-10-19T00:27:00;18.27;;;12.53;;
31438;SDS011;18062;48.872;9.220;2023-10-19T00:29:32;17.43;;;11.40;;
31438;SDS011;18062;48.872;9.220;2023-10-19T00:32:05;16.53;;;11.87;;
31438;SDS011;18062;48.872;9.220;2023-10-19T00:34:33;17.63;;;12.27;;
31438;SDS011;18062;48.872;9.220;2023-10-19T00:37:03;15.17;;;11.13;;
31438;SDS011;18062;48.872;9.220;2023-10-19T00:39:34;15.67;;;12.73;;
31438;SDS011;18062;48.872;9.220;2023-10-19T00:42:13;16.70;;;12.27;;
31438;SDS011;18062;48.872;9.220;2023-10-19T00:44:40;15.60;;;11.20;;
31438;SDS011;18062;48.872;9.220;2023-10-19T00:47:14;18.60;;;11.73;;
31438;SDS011;18062;48.872;9.220;2023-10-19T00:49:44;17.20;;;11.27;;
31438;SDS011;18062;48.872;9.220;2023-10-19T00:52:11;16.13;;;11.70;;
31438;SDS011;18062;48.872;9.220;2023-10-19T00:54:44;14.33;;;10.77;;
31438;SDS011;18062;48.872;9.220;2023-10-19T00:57:13;15.77;;;11.63;;
31438;SDS011;18062;48.872;9.220;2023-10-19T00:59:45;14.03;;;10.90;;
31438;SDS011;18062;48.872;9.220;2023-10-19T01:02:17;14.67;;;11.57;;
31438;SDS011;18062;48.872;9.220;2023-10-19T01:04:54;17.27;;;11.63;;
31438;SDS011;18062;48.872;9.220;2023-10-19T01:07:30;16.37;;;11.97;;
31438;SDS011;18062;48.872;9.220;2023-10-19T01:10:02;17.90;;;12.30;;
31438;SDS011;18062;48.872;9.220;2023-10-19T01:12:37;14.90;;;11.10;;
31438;SDS011;18062;48.872;9.220;2023-10-19T01:17:38;16.77;;;11.50;;
31438;SDS011;18062;48.872;9.220;2023-10-19T01:20:06;17.07;;;11.87;;
31438;SDS011;18062;48.872;9.220;2023-10-19T01:22:42;15.47;;;10.80;;
31438;SDS011;18062;48.872;9.220;2023-10-19T01:25:09;14.67;;;10.20;;
31438;SDS011;18062;48.872;9.220;2023-10-19T01:27:36;13.80;;;10.53;;
31438;SDS011;18062;48.872;9.220;2023-10-19T01:30:06;15.83;;;10.70;;
31438;SDS011;18062;48.872;9.220;2023-10-19T01:32:34;16.33;;;11.30;;
31438;SDS011;18062;48.872;9.220;2023-10-19T01:35:00;16.40;;;10.93;;
31438;SDS011;18062;48.872;9.220;2023-10-19T01:37:26;15.00;;;10.80;;
31438;SDS011;18062;48.872;9.220;2023-10-19T01:39:52;13.23;;;10.30;;
31438;SDS011;18062;48.872;9.220;2023-10-19T01:42:18;14.27;;;9.43;;
31438;SDS011;18062;48.872;9.220;2023-10-19T01:44:44;13.17;;;8.43;;
31438;SDS011;18062;48.872;9.220;2023-10-19T01:47:10;9.70;;;7.83;;
31438;SDS011;18062;48.872;9.220;2023-10-19T01:49:36;10.70;;;7.87;;
31438;SDS011;18062;48.872;9.220;2023-10-19T01:52:02;10.90;;;7.73;;
31438;SDS011;18062;48.872;9.220;2023-10-19T01:54:29;9.40;;;7.53;;
31438;SDS011;18062;48.872;9.220;2023-10-19T01:56:55;15.80;;;10.40;;
31438;SDS011;18062;48.872;9.220;2023-10-19T01:59:24;11.40;;;8.30;;
31438;SDS011;18062;48.872;9.220;2023-10-19T02:01:53;11.03;;;7.77;;
31438;SDS011;18062;48.872;9.220;2023-10-19T02:04:20;13.93;;;10.03;;
31438;SDS011;18062;48.872;9.220;2023-10-19T02:06:49;10.03;;;7.30;;
31438;SDS011;18062;48.872;9.220;2023-10-19T02:09:18;11.63;;;8.70;;
31438;SDS011;18062;48.872;9.220;2023-10-19T02:11:49;13.73;;;9.80;;
31438;SDS011;18062;48.872;9.220;2023-10-19T02:14:18;10.97;;;8.43;;
31438;SDS011;18062;48.872;9.220;2023-10-19T02:16:45;9.90;;;7.43;;
31438;SDS011;18062;48.872;9.220;2023-10-19T02:19:17;10.47;;;7.80;;
31438;SDS011;18062;48.872;9.220;2023-10-19T02:21:45;12.03;;;7.97;;
31438;SDS011;18062;48.872;9.220;2023-10-19T02:24:13;10.10;;;8.37;;
31438;SDS011;18062;48.872;9.220;2023-10-19T02:26:39;15.47;;;10.13;;
31438;SDS011;18062;48.872;9.220;2023-10-19T02:29:05;9.20;;;7.73;;
31438;SDS011;18062;48.872;9.220;2023-10-19T02:31:33;10.43;;;7.93;;
31438;SDS011;18062;48.872;9.220;2023-10-19T02:33:59;11.40;;;8.50;;
31438;SDS011;18062;48.872;9.220;2023-10-19T02:36:26;12.53;;;9.40;;
31438;SDS011;18062;48.872;9.220;2023-10-19T02:39:02;15.87;;;10.43;;
31438;SDS011;18062;48.872;9.220;2023-10-19T02:41:32;11.00;;;8.83;;
31438;SDS011;18062;48.872;9.220;2023-10-19T02:44:00;14.87;;;10.07;;
31438;SDS011;18062;48.872;9.220;2023-10-19T02:46:29;14.93;;;10.53;;
31438;SDS011;18062;48.872;9.220;2023-10-19T02:48:59;16.57;;;10.80;;
31438;SDS011;18062;48.872;9.220;2023-10-19T02:51:25;15.33;;;10.13;;
31438;SDS011;18062;48.872;9.220;2023-10-19T02:53:51;12.57;;;9.93;;
31438;SDS011;18062;48.872;9.220;2023-10-19T02:56:18;17.70;;;9.50;;
31438;SDS011;18062;48.872;9.220;2023-10-19T02:58:45;15.40;;;11.73;;
31438;SDS011;18062;48.872;9.220;2023-10-19T03:01:17;15.50;;;9.23;;
31438;SDS011;18062;48.872;9.220;2023-10-19T03:03:52;12.17;;;9.13;;
31438;SDS011;18062;48.872;9.220;2023-10-19T03:06:21;12.40;;;8.57;;
31438;SDS011;18062;48.872;9.220;2023-10-19T03:08:48;11.90;;;9.17;;
31438;SDS011;18062;48.872;9.220;2023-10-19T03:11:22;12.80;;;9.00;;
31438;SDS011;18062;48.872;9.220;2023-10-19T03:13:48;13.00;;;8.80;;
31438;SDS011;18062;48.872;9.220;2023-10-19T03:16:15;12.07;;;8.43;;
31438;SDS011;18062;48.872;9.220;2023-10-19T03:18:42;11.37;;;9.40;;
31438;SDS011;18062;48.872;9.220;2023-10-19T03:21:08;14.53;;;9.60;;
31438;SDS011;18062;48.872;9.220;2023-10-19T03:23:36;14.83;;;9.57;;
31438;SDS011;18062;48.872;9.220;2023-10-19T03:26:03;12.77;;;8.43;;
31438;SDS011;18062;48.872;9.220;2023-10-19T03:29:06;9.87;;;8.03;;
31438;SDS011;18062;48.872;9.220;2023-10-19T03:31:39;10.63;;;7.60;;
31438;SDS011;18062;48.872;9.220;2023-10-19T03:34:12;9.27;;;6.80;;
31438;SDS011;18062;48.872;9.220;2023-10-19T03:36:41;11.13;;;8.00;;
31438;SDS011;18062;48.872;9.220;2023-10-19T03:39:07;12.40;;;8.80;;
31438;SDS011;18062;48.872;9.220;2023-10-19T03:41:40;11.40;;;8.37;;
31438;SDS011;18062;48.872;9.220;2023-10-19T03:44:10;11.23;;;9.33;;
31438;SDS011;18062;48.872;9.220;2023-10-19T03:46:49;10.87;;;7.93;;
31438;SDS011;18062;48.872;9.220;2023-10-19T03:49:21;12.43;;;7.57;;
31438;SDS011;18062;48.872;9.220;2023-10-19T03:51:48;9.90;;;7.17;;
31438;SDS011;18062;48.872;9.220;2023-10-19T03:54:25;8.17;;;6.93;;
31438;SDS011;18062;48.872;9.220;2023-10-19T03:56:52;9.13;;;6.70;;
31438;SDS011;18062;48.872;9.220;2023-10-19T03:59:19;7.87;;;6.53;;
31438;SDS011;18062;48.872;9.220;2023-10-19T04:01:45;8.20;;;6.60;;
31438;SDS011;18062;48.872;9.220;2023-10-19T04:04:12;9.23;;;6.03;;
31438;SDS011;18062;48.872;9.220;2023-10-19T04:06:39;10.07;;;6.87;;
31438;SDS011;18062;48.872;9.220;2023-10-19T04:09:06;9.33;;;6.80;;
31438;SDS011;18062;48.872;9.220;2023-10-19T04:11:32;11.60;;;7.90;;
31438;SDS011;18062;48.872;9.220;2023-10-19T04:14:13;11.63;;;8.37;;
31438;SDS011;18062;48.872;9.220;2023-10-19T04:16:40;9.90;;;8.20;;
31438;SDS011;18062;48.872;9.220;2023-10-19T04:19:08;13.00;;;8.67;;
31438;SDS011;18062;48.872;9.220;2023-10-19T04:21:35;11.80;;;8.47;;
31438;SDS011;18062;48.872;9.220;2023-10-19T04:24:04;12.13;;;8.83;;
31438;SDS011;18062;48.872;9.220;2023-10-19T04:26:32;10.80;;;7.73;;
31438;SDS011;18062;48.872;9.220;2023-10-19T04:29:02;9.57;;;7.60;;
31438;SDS011;18062;48.872;9.220;2023-10-19T04:31:35;9.20;;;7.23;;
31438;SDS011;18062;48.872;9.220;2023-10-19T04:34:02;9.20;;;7.07;;
31438;SDS011;18062;48.872;9.220;2023-10-19T04:36:32;12.50;;;8.57;;
31438;SDS011;18062;48.872;9.220;2023-10-19T04:38:59;14.07;;;8.20;;
31438;SDS011;18062;48.872;9.220;2023-10-19T04:41:25;11.20;;;8.63;;
31438;SDS011;18062;48.872;9.220;2023-10-19T04:43:54;10.10;;;6.97;;
31438;SDS011;18062;48.872;9.220;2023-10-19T04:46:23;9.23;;;7.07;;
31438;SDS011;18062;48.872;9.220;2023-10-19T04:48:49;10.50;;;7.40;;
31438;SDS011;18062;48.872;9.220;2023-10-19T04:51:15;8.43;;;6.60;;
31438;SDS011;18062;48.872;9.220;2023-10-19T04:53:42;9.40;;;6.67;;
31438;SDS011;18062;48.872;9.220;2023-10-19T04:56:08;7.20;;;6.07;;
31438;SDS011;18062;48.872;9.220;2023-10-19T04:58:34;8.50;;;6.37;;
31438;SDS011;18062;48.872;9.220;2023-10-19T05:01:01;9.93;;;7.27;;
31438;SDS011;18062;48.872;9.220;2023-10-19T05:03:28;8.13;;;6.73;;
31438;SDS011;18062;48.872;9.220;2023-10-19T05:05:55;7.80;;;6.13;;
31438;SDS011;18062;48.872;9.220;2023-10-19T05:08:24;9.67;;;6.60;;
31438;SDS011;18062;48.872;9.220;2023-10-19T05:10:54;7.97;;;6.40;;
31438;SDS011;18062;48.872;9.220;2023-10-19T05:13:23;9.23;;;6.30;;
31438;SDS011;18062;48.872;9.220;2023-10-19T05:15:50;8.80;;;6.50;;
31438;SDS011;18062;48.872;9.220;2023-10-19T05:18:18;8.57;;;6.30;;
31438;SDS011;18062;48.872;9.220;2023-10-19T05:20:45;8.07;;;6.60;;
31438;SDS011;18062;48.872;9.220;2023-10-19T05:23:11;10.60;;;6.70;;
31438;SDS011;18062;48.872;9.220;2023-10-19T05:25:40;10.23;;;7.13;;
31438;SDS011;18062;48.872;9.220;2023-10-19T05:28:13;11.03;;;6.80;;
31438;SDS011;18062;48.872;9.220;2023-10-19T05:30:39;9.03;;;6.93;;
31438;SDS011;18062;48.872;9.220;2023-10-19T05:33:05;11.67;;;7.77;;
31438;SDS011;18062;48.872;9.220;2023-10-19T05:35:31;11.83;;;7.70;;
31438;SDS011;18062;48.872;9.220;2023-10-19T05:38:01;10.27;;;6.97;;
31438;SDS011;18062;48.872;9.220;2023-10-19T05:40:30;9.90;;;7.50;;
31438;SDS011;18062;48.872;9.220;2023-10-19T05:42:57;8.33;;;5.97;;
31438;SDS011;18062;48.872;9.220;2023-10-19T05:45:23;11.57;;;7.70;;
31438;SDS011;18062;48.872;9.220;2023-10-19T05:47:50;10.70;;;7.40;;
31438;SDS011;18062;48.872;9.220;2023-10-19T05:50:16;9.00;;;7.03;;
31438;SDS011;18062;48.872;9.220;2023-10-19T05:52:42;9.37;;;7.03;;
31438;SDS011;18062;48.872;9.220;2023-10-19T05:55:09;8.77;;;6.80;;
31438;SDS011;18062;48.872;9.220;2023-10-19T05:57:38;8.53;;;6.70;;
31438;SDS011;18062;48.872;9.220;2023-10-19T06:00:08;10.60;;;7.83;;
31438;SDS011;18062;48.872;9.220;2023-10-19T06:02:38;13.60;;;8.87;;
31438;SDS011;18062;48.872;9.220;2023-10-19T06:05:04;13.30;;;8.60;;
31438;SDS011;18062;48.872;9.220;2023-10-19T06:07:30;12.33;;;7.83;;
31438;SDS011;18062;48.872;9.220;2023-10-19T06:09:58;14.03;;;8.40;;
31438;SDS011;18062;48.872;9.220;2023-10-19T06:12:29;12.17;;;8.43;;
31438;SDS011;18062;48.872;9.220;2023-10-19T06:14:55;11.00;;;8.20;;
31438;SDS011;18062;48.872;9.220;2023-10-19T06:17:21;11.73;;;7.87;;
31438;SDS011;18062;48.872;9.220;2023-10-19T06:19:48;10.50;;;7.30;;
31438;SDS011;18062;48.872;9.220;2023-10-19T06:22:14;11.27;;;7.87;;
31438;SDS011;18062;48.872;9.220;2023-10-19T06:24:43;10.53;;;7.03;;
31438;SDS011;18062;48.872;9.220;2023-10-19T06:27:09;9.53;;;7.90;;
31438;SDS011;18062;48.872;9.220;2023-10-19T06:29:35;12.37;;;8.23;;
31438;SDS011;18062;48.872;9.220;2023-10-19T06:32:01;8.70;;;6.50;;
31438;SDS011;18062;48.872;9.220;2023-10-19T06:34:27;9.60;;;7.60;;
31438;SDS011;18062;48.872;9.220;2023-10-19T06:36:54;9.53;;;6.33;;
31438;SDS011;18062;48.872;9.220;2023-10-19T06:39:20;10.63;;;7.37;;
31438;SDS011;18062;48.872;9.220;2023-10-19T06:41:46;8.20;;;6.10;;
31438;SDS011;18062;48.872;9.220;2023-10-19T06:44:14;9.03;;;6.70;;
31438;SDS011;18062;48.872;9.220;2023-10-19T06:46:41;7.00;;;5.83;;
31438;SDS011;18062;48.872;9.220;2023-10-19T06:49:08;7.17;;;5.30;;
31438;SDS011;18062;48.872;9.220;2023-10-19T06:51:34;5.77;;;5.17;;
31438;SDS011;18062;48.872;9.220;2023-10-19T06:54:01;5.27;;;4.63;;
31438;SDS011;18062;48.872;9.220;2023-10-19T06:56:28;6.60;;;4.37;;
31438;SDS011;18062;48.872;9.220;2023-10-19T06:58:55;8.27;;;5.00;;
31438;SDS011;18062;48.872;9.220;2023-10-19T07:01:22;7.37;;;5.97;;
31438;SDS011;18062;48.872;9.220;2023-10-19T07:03:51;8.90;;;6.90;;
31438;SDS011;18062;48.872;9.220;2023-10-19T07:06:18;9.20;;;7.53;;
31438;SDS011;18062;48.872;9.220;2023-10-19T07:08:44;12.70;;;8.50;;
31438;SDS011;18062;48.872;9.220;2023-10-19T07:11:11;12.13;;;8.90;;
31438;SDS011;18062;48.872;9.220;2023-10-19T07:13:37;14.33;;;8.17;;
31438;SDS011;18062;48.872;9.220;2023-10-19T07:16:05;11.67;;;7.70;;
31438;SDS011;18062;48.872;9.220;2023-10-19T07:18:31;14.37;;;9.40;;
31438;SDS011;18062;48.872;9.220;2023-10-19T07:20:57;10.70;;;7.33;;
31438;SDS011;18062;48.872;9.220;2023-10-19T07:23:30;8.73;;;7.20;;
31438;SDS011;18062;48.872;9.220;2023-10-19T07:25:56;11.40;;;8.37;;
31438;SDS011;18062;48.872;9.220;2023-10-19T07:28:25;9.67;;;7.23;;
31438;SDS011;18062;48.872;9.220;2023-10-19T07:30:52;10.80;;;7.43;;
31438;SDS011;18062;48.872;9.220;2023-10-19T07:33:18;9.33;;;7.00;;
31438;SDS011;18062;48.872;9.220;2023-10-19T07:35:49;12.67;;;7.60;;
31438;SDS011;18062;48.872;9.220;2023-10-19T07:38:25;11.57;;;8.40;;
31438;SDS011;18062;48.872;9.220;2023-10-19T07:54:54;8.43;;;6.70;;
31438;SDS011;18062;48.872;9.220;2023-10-19T07:57:20;8.20;;;6.80;;
31438;SDS011;18062;48.872;9.220;2023-10-19T07:59:46;8.67;;;7.27;;
31438;SDS011;18062;48.872;9.220;2023-10-19T08:02:12;9.27;;;6.77;;
31438;SDS011;18062;48.872;9.220;2023-10-19T08:04:38;9.70;;;7.20;;
31438;SDS011;18062;48.872;9.220;2023-10-19T08:07:05;10.67;;;7.47;;
31438;SDS011;18062;48.872;9.220;2023-10-19T08:09:31;9.40;;;7.17;;
31438;SDS011;18062;48.872;9.220;2023-10-19T08:12:00;9.40;;;7.33;;
31438;SDS011;18062;48.872;9.220;2023-10-19T08:14:30;9.97;;;6.93;;
31438;SDS011;18062;48.872;9.220;2023-10-19T08:16:56;8.90;;;7.23;;
31438;SDS011;18062;48.872;9.220;2023-10-19T08:19:22;7.83;;;6.30;;
31438;SDS011;18062;48.872;9.220;2023-10-19T08:21:48;8.70;;;7.27;;
31438;SDS011;18062;48.872;9.220;2023-10-19T08:24:14;9.60;;;8.47;;
31438;SDS011;18062;48.872;9.220;2023-10-19T08:26:43;11.17;;;9.30;;
31438;SDS011;18062;48.872;9.220;2023-10-19T08:29:10;14.23;;;9.80;;
31438;SDS011;18062;48.872;9.220;2023-10-19T08:31:40;12.30;;;8.53;;
31438;SDS011;18062;48.872;9.220;2023-10-19T08:34:06;9.60;;;8.43;;
31438;SDS011;18062;48.872;9.220;2023-10-19T08:36:34;12.47;;;8.70;;
31438;SDS011;18062;48.872;9.220;2023-10-19T08:39:00;9.40;;;8.40;;
31438;SDS011;18062;48.872;9.220;2023-10-19T08:41:31;8.00;;;6.60;;
31438;SDS011;18062;48.872;9.220;2023-10-19T08:43:57;7.40;;;6.20;;
31438;SDS011;18062;48.872;9.220;2023-10-19T08:46:23;6.90;;;5.90;;
31438;SDS011;18062;48.872;9.220;2023-10-19T08:48:50;6.80;;;5.53;;
31438;SDS011;18062;48.872;9.220;2023-10-19T08:51:16;6.83;;;5.60;;
31438;SDS011;18062;48.872;9.220;2023-10-19T08:53:43;6.27;;;5.10;;
31438;SDS011;18062;48.872;9.220;2023-10-19T08:56:09;4.67;;;4.07;;
31438;SDS011;18062;48.872;9.220;2023-10-19T08:58:37;5.10;;;4.60;;
31438;SDS011;18062;48.872;9.220;2023-10-19T09:01:03;4.07;;;3.67;;
31438;SDS011;18062;48.872;9.220;2023-10-19T09:03:32;5.40;;;4.37;;
31438;SDS011;18062;48.872;9.220;2023-10-19T09:06:02;5.70;;;4.17;;
31438;SDS011;18062;48.872;9.220;2023-10-19T09:08:30;3.77;;;3.43;;
31438;SDS011;18062;48.872;9.220;2023-10-19T09:11:09;3.80;;;3.50;;
31438;SDS011;18062;48.872;9.220;2023-10-19T09:13:44;4.27;;;2.93;;
31438;SDS011;18062;48.872;9.220;2023-10-19T09:16:16;5.07;;;3.57;;
31438;SDS011;18062;48.872;9.220;2023-10-19T09:18:43;5.20;;;3.22;;
31438;SDS011;18062;48.872;9.220;2023-10-19T09:21:10;3.90;;;3.30;;
31438;SDS011;18062;48.872;9.220;2023-10-19T09:23:49;3.15;;;2.85;;
31438;SDS011;18062;48.872;9.220;2023-10-19T09:26:15;2.88;;;2.67;;
31438;SDS011;18062;48.872;9.220;2023-10-19T09:28:41;3.38;;;3.05;;
31438;SDS011;18062;48.872;9.220;2023-10-19T09:31:07;5.72;;;4.75;;
31438;SDS011;18062;48.872;9.220;2023-10-19T09:33:34;3.60;;;3.30;;
31438;SDS011;18062;48.872;9.220;2023-10-19T09:36:01;3.95;;;2.70;;
31438;SDS011;18062;48.872;9.220;2023-10-19T09:38:29;3.20;;;2.88;;
31438;SDS011;18062;48.872;9.220;2023-10-19T09:40:55;2.90;;;2.60;;
31438;SDS011;18062;48.872;9.220;2023-10-19T09:43:30;2.88;;;2.45;;
31438;SDS011;18062;48.872;9.220;2023-10-19T09:46:00;4.70;;;3.05;;
31438;SDS011;18062;48.872;9.220;2023-10-19T09:48:26;3.78;;;2.85;;
31438;SDS011;18062;48.872;9.220;2023-10-19T09:50:53;4.13;;;2.80;;
31438;SDS011;18062;48.872;9.220;2023-10-19T09:53:26;3.40;;;2.80;;
31438;SDS011;18062;48.872;9.220;2023-10-19T09:55:53;3.80;;;2.78;;
31438;SDS011;18062;48.872;9.220;2023-10-19T09:58:20;4.15;;;2.55;;
31438;SDS011;18062;48.872;9.220;2023-10-19T10:00:49;2.90;;;2.60;;
31438;SDS011;18062;48.872;9.220;2023-10-19T10:06:01;2.60;;;2.40;;
31438;SDS011;18062;48.872;9.220;2023-10-19T10:08:29;3.17;;;2.53;;
31438;SDS011;18062;48.872;9.220;2023-10-19T10:10:55;3.05;;;2.50;;
31438;SDS011;18062;48.872;9.220;2023-10-19T10:15:55;2.35;;;2.10;;
31438;SDS011;18062;48.872;9.220;2023-10-19T10:18:24;4.70;;;2.95;;
31438;SDS011;18062;48.872;9.220;2023-10-19T10:23:45;5.35;;;2.97;;
31438;SDS011;18062;48.872;9.220;2023-10-19T10:26:13;4.70;;;4.07;;
31438;SDS011;18062;48.872;9.220;2023-10-19T10:28:39;5.27;;;3.50;;
31438;SDS011;18062;48.872;9.220;2023-10-19T10:31:13;2.33;;;2.13;;
31438;SDS011;18062;48.872;9.220;2023-10-19T10:33:43;3.57;;;2.30;;
31438;SDS011;18062;48.872;9.220;2023-10-19T10:36:13;2.77;;;2.47;;
31438;SDS011;18062;48.872;9.220;2023-10-19T10:38:40;2.73;;;2.47;;
31438;SDS011;18062;48.872;9.220;2023-10-19T10:41:06;4.50;;;2.70;;
31438;SDS011;18062;48.872;9.220;2023-10-19T10:43:48;2.40;;;2.17;;
31438;SDS011;18062;48.872;9.220;2023-10-19T10:46:15;2.30;;;2.10;;
31438;SDS011;18062;48.872;9.220;2023-10-19T10:48:42;3.50;;;2.30;;
31438;SDS011;18062;48.872;9.220;2023-10-19T10:54:00;2.80;;;2.00;;
31438;SDS011;18062;48.872;9.220;2023-10-19T10:56:27;1.90;;;1.80;;
31438;SDS011;18062;48.872;9.220;2023-10-19T10:58:53;2.47;;;1.80;;
31438;SDS011;18062;48.872;9.220;2023-10-19T11:01:30;3.90;;;2.50;;
31438;SDS011;18062;48.872;9.220;2023-10-19T11:04:10;3.70;;;2.13;;
31438;SDS011;18062;48.872;9.220;2023-10-19T11:06:52;3.57;;;2.20;;
31438;SDS011;18062;48.872;9.220;2023-10-19T11:09:20;3.77;;;2.23;;
31438;SDS011;18062;48.872;9.220;2023-10-19T11:11:47;4.13;;;2.97;;
31438;SDS011;18062;48.872;9.220;2023-10-19T11:14:14;4.47;;;4.07;;
31438;SDS011;18062;48.872;9.220;2023-10-19T11:16:40;6.50;;;3.30;;
31438;SDS011;18062;48.872;9.220;2023-10-19T11:19:08;2.90;;;2.70;;
31438;SDS011;18062;48.872;9.220;2023-10-19T11:21:34;5.80;;;2.53;;
31438;SDS011;18062;48.872;9.220;2023-10-19T11:24:00;3.17;;;2.40;;
31438;SDS011;18062;48.872;9.220;2023-10-19T11:26:27;2.50;;;2.30;;
31438;SDS011;18062;48.872;9.220;2023-10-19T11:28:59;3.27;;;2.50;;
31438;SDS011;18062;48.872;9.220;2023-10-19T11:31:35;4.57;;;2.30;;
31438;SDS011;18062;48.872;9.220;2023-10-19T11:34:04;3.97;;;2.90;;
31438;SDS011;18062;48.872;9.220;2023-10-19T11:36:31;3.87;;;3.37;;
31438;SDS011;18062;48.872;9.220;2023-10-19T11:38:57;4.53;;;3.43;;
31438;SDS011;18062;48.872;9.220;2023-10-19T11:41:22;5.00;;;3.40;;
31438;SDS011;18062;48.872;9.220;2023-10-19T11:43:49;3.73;;;3.03;;
31438;SDS011;18062;48.872;9.220;2023-10-19T11:46:15;3.97;;;3.47;;
31438;SDS011;18062;48.872;9.220;2023-10-19T11:48:47;5.17;;;4.53;;
31438;SDS011;18062;48.872;9.220;2023-10-19T11:51:13;6.70;;;5.10;;
31438;SDS011;18062;48.872;9.220;2023-10-19T11:53:40;5.83;;;4.43;;
31438;SDS011;18062;48.872;9.220;2023-10-19T11:56:08;8.63;;;4.47;;
31438;SDS011;18062;48.872;9.220;2023-10-19T11:58:35;6.20;;;4.90;;
31438;SDS011;18062;48.872;9.220;2023-10-19T12:01:02;5.63;;;4.63;;
31438;SDS011;18062;48.872;9.220;2023-10-19T12:03:32;5.43;;;4.10;;
31438;SDS011;18062;48.872;9.220;2023-10-19T12:06:02;4.93;;;4.43;;
31438;SDS011;18062;48.872;9.220;2023-10-19T12:08:29;8.53;;;5.77;;
31438;SDS011;18062;48.872;9.220;2023-10-19T12:10:55;10.80;;;5.90;;
31438;SDS011;18062;48.872;9.220;2023-10-19T12:13:21;6.43;;;5.07;;
31438;SDS011;18062;48.872;9.220;2023-10-19T12:15:47;5.27;;;4.57;;
31438;SDS011;18062;48.872;9.220;2023-10-19T12:18:17;5.63;;;4.73;;
31438;SDS011;18062;48.872;9.220;2023-10-19T12:20:44;5.57;;;4.63;;
31438;SDS011;18062;48.872;9.220;2023-10-19T12:23:11;5.80;;;5.17;;
31438;SDS011;18062;48.872;9.220;2023-10-19T12:25:37;6.30;;;4.80;;
31438;SDS011;18062;48.872;9.220;2023-10-19T12:28:03;7.80;;;4.93;;
31438;SDS011;18062;48.872;9.220;2023-10-19T12:30:30;5.10;;;4.50;;
31438;SDS011;18062;48.872;9.220;2023-10-19T12:33:04;5.50;;;4.13;;
31438;SDS011;18062;48.872;9.220;2023-10-19T12:35:36;5.43;;;4.57;;
31438;SDS011;18062;48.872;9.220;2023-10-19T12:38:18;4.63;;;4.07;;
31438;SDS011;18062;48.872;9.220;2023-10-19T12:40:48;5.00;;;4.47;;
31438;SDS011;18062;48.872;9.220;2023-10-19T12:43:15;4.77;;;4.27;;
31438;SDS011;18062;48.872;9.220;2023-10-19T12:45:43;4.60;;;4.20;;
31438;SDS011;18062;48.872;9.220;2023-10-19T12:48:15;4.70;;;4.20;;
31438;SDS011;18062;48.872;9.220;2023-10-19T12:50:41;5.27;;;3.70;;
31438;SDS011;18062;48.872;9.220;2023-10-19T12:53:07;4.20;;;3.80;;
31438;SDS011;18062;48.872;9.220;2023-10-19T12:55:34;3.93;;;3.43;;
31438;SDS011;18062;48.872;9.220;2023-10-19T12:58:02;4.90;;;3.60;;
31438;SDS011;18062;48.872;9.220;2023-10-19T13:00:32;3.70;;;3.30;;
31438;SDS011;18062;48.872;9.220;2023-10-19T13:03:06;3.70;;;3.23;;
31438;SDS011;18062;48.872;9.220;2023-10-19T13:05:33;4.37;;;3.60;;
31438;SDS011;18062;48.872;9.220;2023-10-19T13:07:59;3.53;;;2.90;;
31438;SDS011;18062;48.872;9.220;2023-10-19T13:10:29;4.73;;;3.03;;
31438;SDS011;18062;48.872;9.220;2023-10-19T13:13:01;3.47;;;2.63;;
31438;SDS011;18062;48.872;9.220;2023-10-19T13:15:31;3.93;;;2.97;;
31438;SDS011;18062;48.872;9.220;2023-10-19T13:17:57;3.00;;;2.70;;
31438;SDS011;18062;48.872;9.220;2023-10-19T13:20:27;4.33;;;3.27;;
31438;SDS011;18062;48.872;9.220;2023-10-19T13:22:59;2.90;;;2.70;;
31438;SDS011;18062;48.872;9.220;2023-10-19T13:25:25;3.30;;;3.00;;
31438;SDS011;18062;48.872;9.220;2023-10-19T13:28:10;4.30;;;2.67;;
31438;SDS011;18062;48.872;9.220;2023-10-19T13:30:48;3.37;;;3.00;;
31438;SDS011;18062;48.872;9.220;2023-10-19T13:33:14;4.40;;;3.17;;
31438;SDS011;18062;48.872;9.220;2023-10-19T13:35:41;3.47;;;2.87;;
31438;SDS011;18062;48.872;9.220;2023-10-19T13:38:08;3.53;;;3.10;;
31438;SDS011;18062;48.872;9.220;2023-10-19T13:40:35;3.60;;;2.50;;
31438;SDS011;18062;48.872;9.220;2023-10-19T13:43:01;4.10;;;2.70;;
31438;SDS011;18062;48.872;9.220;2023-10-19T13:45:30;6.63;;;3.70;;
31438;SDS011;18062;48.872;9.220;2023-10-19T13:47:56;5.23;;;3.47;;
31438;SDS011;18062;48.872;9.220;2023-10-19T13:50:23;3.87;;;3.07;;
31438;SDS011;18062;48.872;9.220;2023-10-19T13:52:51;3.70;;;3.07;;
31438;SDS011;18062;48.872;9.220;2023-10-19T13:55:17;4.53;;;3.40;;
31438;SDS011;18062;48.872;9.220;2023-10-19T13:57:45;7.70;;;6.90;;
31438;SDS011;18062;48.872;9.220;2023-10-19T14:00:12;6.50;;;5.90;;
31438;SDS011;18062;48.872;9.220;2023-10-19T14:02:45;5.07;;;3.83;;
31438;SDS011;18062;48.872;9.220;2023-10-19T14:05:13;6.23;;;4.10;;
31438;SDS011;18062;48.872;9.220;2023-10-19T14:07:39;6.10;;;3.67;;
31438;SDS011;18062;48.872;9.220;2023-10-19T14:10:09;3.30;;;3.00;;
31438;SDS011;18062;48.872;9.220;2023-10-19T14:12:39;3.10;;;2.80;;
31438;SDS011;18062;48.872;9.220;2023-10-19T14:15:17;3.23;;;2.93;;
31438;SDS011;18062;48.872;9.220;2023-10-19T14:17:44;4.93;;;3.63;;
31438;SDS011;18062;48.872;9.220;2023-10-19T14:20:11;3.73;;;3.20;;
31438;SDS011;18062;48.872;9.220;2023-10-19T14:22:40;4.23;;;3.13;;
31438;SDS011;18062;48.872;9.220;2023-10-19T14:25:07;2.57;;;2.37;;
31438;SDS011;18062;48.872;9.220;2023-10-19T14:27:37;3.33;;;3.03;;
31438;SDS011;18062;48.872;9.220;2023-10-19T14:30:03;5.87;;;5.10;;
31438;SDS011;18062;48.872;9.220;2023-10-19T14:32:29;5.43;;;4.43;;
31438;SDS011;18062;48.872;9.220;2023-10-19T14:34:55;5.10;;;4.60;;
31438;SDS011;18062;48.872;9.220;2023-10-19T14:37:21;4.30;;;3.63;;
31438;SDS011;18062;48.872;9.220;2023-10-19T14:39:47;4.37;;;3.70;;
31438;SDS011;18062;48.872;9.220;2023-10-19T14:42:13;4.60;;;4.07;;
31438;SDS011;18062;48.872;9.220;2023-10-19T14:44:39;4.60;;;4.20;;
31438;SDS011;18062;48.872;9.220;2023-10-19T14:47:05;5.97;;;4.70;;
31438;SDS011;18062;48.872;9.220;2023-10-19T14:49:31;5.60;;;3.97;;
31438;SDS011;18062;48.872;9.220;2023-10-19T14:51:57;6.47;;;5.07;;
31438;SDS011;18062;48.872;9.220;2023-10-19T14:54:23;5.97;;;5.10;;
31438;SDS011;18062;48.872;9.220;2023-10-19T14:56:49;10.30;;;8.07;;
31438;SDS011;18062;48.872;9.220;2023-10-19T14:59:15;7.73;;;6.20;;
31438;SDS011;18062;48.872;9.220;2023-10-19T15:01:43;9.57;;;6.63;;
31438;SDS011;18062;48.872;9.220;2023-10-19T15:04:09;6.60;;;5.70;;
31438;SDS011;18062;48.872;9.220;2023-10-19T15:06:35;7.23;;;5.13;;
31438;SDS011;18062;48.872;9.220;2023-10-19T15:09:01;5.60;;;4.50;;
31438;SDS011;18062;48.872;9.220;2023-10-19T15:11:27;5.43;;;4.57;;
31438;SDS011;18062;48.872;9.220;2023-10-19T15:13:53;7.23;;;5.10;;
31438;SDS011;18062;48.872;9.220;2023-10-19T15:16:19;5.30;;;4.80;;